Terminal Aerodrome Forecast
Issued by NWS Des Moines, IA

Home | Current Version | Previous Version | Text Only | Print | Product List | Glossary On
Versions: 1 2 3 4 5 6 7 8 9 10 11 12 13 14 15 16 17 18 19 20
000
FTUS43 KDMX 280520
TAFALO
TAF
KALO 280520Z 2806/2906 VRB03KT 3SM BR SCT004 SCT030
      TEMPO 2806/2809 1/2SM FG SCT002
     FM280900 VRB02KT 1/2SM FG BKN002
     FM281400 12004KT 4SM BR SCT008
     FM281500 15007KT P6SM SCT025=

USA.gov is the U.S. government's official web portal to all federal, state and local government web resources and services.